Time;durP1;ratioP1;P1;durP2;ratioP2;P2;SDS_P1;SDS_P2;PMS_P1;PMS_P2;Temp;Humidity;BMP_temperature;BMP_pressure;BME280_temperature;BME280_humidity;BME280_pressure;Samples;Min_cycle;Max_cycle;Signal;HPM_P1;HPM_P2
2023/01/17 00:02:12;;;;;;;7.10;1.30;;;3.60;99.90;;;;;;5053762;28;20130;-61
2023/01/17 00:10:19;;;;;;;5.68;1.17;;;3.70;99.90;;;;;;5054950;28;20406;-62
2023/01/17 00:12:50;;;;;;;3.90;0.90;;;3.70;99.90;;;;;;5052305;28;20045;-62
2023/01/17 00:15:18;;;;;;;7.13;1.35;;;3.60;99.90;;;;;;5037046;28;20068;-61
2023/01/17 00:17:44;;;;;;;3.05;0.88;;;3.50;99.90;;;;;;5035971;28;20036;-61
2023/01/17 00:26:02;;;;;;;1.05;0.30;;;3.40;99.90;;;;;;5053083;28;20115;-62
2023/01/17 01:35:45;;;;;;;6.05;1.90;;;3.80;99.90;;;;;;5050563;28;20051;-61
2023/01/17 01:38:11;;;;;;;5.25;1.40;;;3.80;99.90;;;;;;5051913;28;20068;-61
2023/01/17 01:40:45;;;;;;;6.38;1.35;;;3.80;99.90;;;;;;5052865;28;20079;-61
2023/01/17 01:43:13;;;;;;;8.02;1.50;;;3.80;99.90;;;;;;5051164;28;20108;-62
2023/01/17 01:45:43;;;;;;;4.55;0.70;;;3.80;99.90;;;;;;5051089;28;20043;-61
2023/01/17 01:48:24;;;;;;;3.25;1.13;;;3.90;99.90;;;;;;5051852;28;20420;-61
2023/01/17 01:50:50;;;;;;;5.53;1.00;;;3.80;99.90;;;;;;5051798;28;20045;-61
2023/01/17 01:53:18;;;;;;;6.88;1.50;;;3.80;99.90;;;;;;5052911;28;20119;-61
2023/01/17 01:55:45;;;;;;;6.57;1.13;;;3.80;99.90;;;;;;5050929;28;20040;-61
2023/01/17 01:58:19;;;;;;;4.03;1.00;;;3.80;99.90;;;;;;5051923;28;20397;-61
2023/01/17 02:00:45;;;;;;;7.22;1.50;;;3.90;99.90;;;;;;5051310;28;20446;-62
2023/01/17 02:03:16;;;;;;;4.28;1.00;;;3.90;99.90;;;;;;5051007;28;20120;-61
2023/01/17 02:05:43;;;;;;;5.78;1.05;;;3.90;99.90;;;;;;5051057;28;20039;-61
2023/01/17 02:08:16;;;;;;;7.88;1.30;;;3.90;99.90;;;;;;5051530;28;20124;-61
2023/01/17 02:10:43;;;;;;;7.70;1.65;;;3.90;99.90;;;;;;5050973;28;20045;-62
2023/01/17 02:13:09;;;;;;;7.18;1.35;;;3.90;99.90;;;;;;5051701;28;20385;-64
2023/01/17 02:16:00;;;;;;;4.65;1.17;;;3.90;99.90;;;;;;5052652;28;20449;-64
2023/01/17 02:18:46;;;;;;;5.05;0.90;;;3.90;99.90;;;;;;5033754;28;20041;-64
2023/01/17 02:21:30;;;;;;;6.25;1.33;;;4.00;99.90;;;;;;5051177;28;20045;-64
2023/01/17 02:23:56;;;;;;;5.53;1.17;;;4.10;99.90;;;;;;5033739;28;20040;-64
2023/01/17 02:26:46;;;;;;;6.10;1.17;;;4.20;99.90;;;;;;5050423;28;20060;-64
2023/01/17 02:29:34;;;;;;;4.65;0.80;;;4.20;99.90;;;;;;5052456;28;20068;-64
2023/01/17 02:32:04;;;;;;;10.15;1.67;;;4.00;99.90;;;;;;5049637;28;20041;-64
2023/01/17 02:34:57;;;;;;;3.65;0.88;;;3.80;99.90;;;;;;5052292;28;20090;-62
2023/01/17 02:37:29;;;;;;;5.00;1.15;;;3.60;99.90;;;;;;5051144;28;20486;-62
2023/01/17 02:40:11;;;;;;;6.70;1.40;;;3.50;99.90;;;;;;5033193;28;20059;-62
2023/01/17 02:42:43;;;;;;;5.18;1.20;;;3.40;99.90;;;;;;5050792;28;20517;-62
2023/01/17 02:45:14;;;;;;;4.72;1.20;;;3.40;99.90;;;;;;5050970;28;20053;-62
2023/01/17 02:47:40;;;;;;;8.40;1.05;;;3.50;99.90;;;;;;5050850;28;20397;-62
2023/01/17 02:50:14;;;;;;;4.60;1.00;;;3.50;99.90;;;;;;5051998;28;20037;-62
2023/01/17 02:52:55;;;;;;;4.43;0.93;;;3.60;99.90;;;;;;5050946;28;20642;-62
2023/01/17 02:55:44;;;;;;;7.97;1.20;;;3.50;99.90;;;;;;5050834;28;20091;-62
2023/01/17 02:58:23;;;;;;;4.10;0.93;;;3.50;99.90;;;;;;5050850;28;20116;-63
2023/01/17 03:00:58;;;;;;;6.72;1.55;;;3.50;99.90;;;;;;5033081;28;20481;-63
2023/01/17 03:03:32;;;;;;;10.55;2.00;;;3.60;99.90;;;;;;5052224;28;20434;-63
2023/01/17 03:06:26;;;;;;;6.82;1.17;;;3.70;99.90;;;;;;5050359;28;20497;-63
2023/01/17 03:08:52;;;;;;;6.50;1.98;;;3.70;99.90;;;;;;5051228;28;20390;-63
2023/01/17 03:11:18;;;;;;;3.03;0.88;;;3.80;99.90;;;;;;5052096;28;20429;-63
2023/01/17 03:13:44;;;;;;;2.75;0.68;;;3.70;99.90;;;;;;5033075;28;20542;-64
2023/01/17 03:16:18;;;;;;;3.35;0.98;;;3.70;99.90;;;;;;5050907;28;20041;-63
2023/01/17 03:18:44;;;;;;;11.52;1.95;;;3.70;99.90;;;;;;5050170;28;20048;-63
2023/01/17 03:21:09;;;;;;;3.67;1.05;;;3.70;99.90;;;;;;5049893;28;20045;-63
2023/01/17 03:23:35;;;;;;;4.93;1.20;;;3.70;99.90;;;;;;5051672;28;20128;-64
2023/01/17 03:26:01;;;;;;;7.20;1.23;;;3.60;99.90;;;;;;5051145;28;20052;-64
2023/01/17 03:28:27;;;;;;;6.13;1.10;;;3.70;99.90;;;;;;5049949;28;20044;-64
2023/01/17 03:30:52;;;;;;;6.60;1.08;;;3.60;99.90;;;;;;5052597;28;20442;-63
2023/01/17 03:33:18;;;;;;;7.38;1.20;;;3.60;99.90;;;;;;5037968;28;20056;-64
2023/01/17 03:35:44;;;;;;;5.43;1.30;;;3.60;99.90;;;;;;5054229;28;20116;-64
2023/01/17 03:38:10;;;;;;;4.60;1.35;;;3.60;99.90;;;;;;5053971;28;20071;-64
2023/01/17 03:40:36;;;;;;;5.10;1.00;;;3.60;99.90;;;;;;5054319;28;20049;-64
2023/01/17 03:43:01;;;;;;;6.00;1.30;;;3.70;99.90;;;;;;5054473;28;20125;-64
2023/01/17 03:45:27;;;;;;;8.95;1.58;;;3.70;99.90;;;;;;5055475;28;20482;-64
2023/01/17 03:47:55;;;;;;;11.93;1.65;;;3.60;99.90;;;;;;5054683;28;20041;-64
2023/01/17 03:50:21;;;;;;;8.32;1.65;;;3.60;99.90;;;;;;5053372;28;20044;-64
2023/01/17 03:52:47;;;;;;;6.18;1.48;;;3.70;99.90;;;;;;5054374;28;20037;-64
2023/01/17 03:55:12;;;;;;;4.20;0.73;;;3.70;99.90;;;;;;5055305;28;20499;-63
2023/01/17 03:57:38;;;;;;;5.38;0.70;;;3.50;99.90;;;;;;5054454;28;20512;-63
2023/01/17 04:00:04;;;;;;;3.95;0.80;;;3.40;99.90;;;;;;5054130;28;20478;-64
2023/01/17 04:02:30;;;;;;;2.30;0.60;;;3.20;99.90;;;;;;5055141;28;20045;-63
2023/01/17 04:04:55;;;;;;;3.58;0.80;;;3.10;99.90;;;;;;5052455;28;20119;-64
2023/01/17 04:07:21;;;;;;;3.30;0.90;;;3.10;99.90;;;;;;5054656;28;20037;-63
2023/01/17 04:09:47;;;;;;;4.72;0.75;;;3.10;99.90;;;;;;5053748;28;20041;-64
2023/01/17 04:12:13;;;;;;;6.50;1.00;;;3.10;99.90;;;;;;5054935;28;20478;-64
2023/01/17 04:14:39;;;;;;;4.43;0.88;;;3.10;99.90;;;;;;5053084;28;20133;-64
2023/01/17 04:17:09;;;;;;;6.53;1.67;;;3.10;99.90;;;;;;5054064;28;20679;-64
2023/01/17 04:19:35;;;;;;;3.38;0.70;;;3.10;99.90;;;;;;5053711;28;20453;-64
2023/01/17 04:22:02;;;;;;;5.07;1.00;;;3.00;99.90;;;;;;5054150;28;20037;-64
2023/01/17 04:24:27;;;;;;;8.98;1.35;;;3.00;99.90;;;;;;5052745;28;20394;-64
2023/01/17 04:26:53;;;;;;;6.70;2.08;;;3.00;99.90;;;;;;5054209;28;20115;-64
2023/01/17 04:29:19;;;;;;;5.10;0.90;;;3.00;99.90;;;;;;5053327;28;20049;-64
2023/01/17 04:31:46;;;;;;;6.88;2.15;;;3.00;99.90;;;;;;5052869;28;20045;-64
2023/01/17 04:34:12;;;;;;;3.17;0.80;;;3.00;99.90;;;;;;5053053;28;20041;-64
2023/01/17 04:36:37;;;;;;;5.07;1.52;;;3.00;99.90;;;;;;5052995;28;20043;-64
2023/01/17 04:39:03;;;;;;;4.72;0.80;;;3.00;99.90;;;;;;5052488;28;20041;-64
2023/01/17 04:41:29;;;;;;;5.57;0.73;;;3.10;99.90;;;;;;5052867;28;20508;-64
2023/01/17 04:43:54;;;;;;;8.55;1.65;;;3.10;99.90;;;;;;5052396;28;20457;-64
2023/01/17 04:46:20;;;;;;;11.50;1.80;;;3.10;99.90;;;;;;5053528;28;20509;-64
2023/01/17 04:48:46;;;;;;;6.03;1.00;;;3.10;99.90;;;;;;5053417;28;20043;-64
2023/01/17 04:51:11;;;;;;;3.97;0.80;;;3.00;99.90;;;;;;5053943;28;20040;-64
2023/01/17 04:53:37;;;;;;;6.10;0.98;;;3.00;99.90;;;;;;5051761;28;20037;-64
2023/01/17 04:56:03;;;;;;;5.03;1.10;;;3.00;99.90;;;;;;5053946;28;20025;-65
2023/01/17 04:58:29;;;;;;;5.20;1.17;;;2.90;99.90;;;;;;5052723;28;20080;-64
2023/01/17 05:00:59;;;;;;;2.92;1.05;;;2.90;99.90;;;;;;5051516;28;20389;-64
2023/01/17 05:03:25;;;;;;;6.78;1.20;;;2.80;99.90;;;;;;5035831;28;20037;-64
2023/01/17 05:05:51;;;;;;;8.45;1.80;;;2.70;99.90;;;;;;5053175;28;20041;-64
2023/01/17 05:08:17;;;;;;;6.65;1.50;;;2.70;99.90;;;;;;5051667;28;20130;-64
2023/01/17 05:10:44;;;;;;;8.77;1.23;;;2.70;99.90;;;;;;5053104;28;20095;-64
2023/01/17 05:13:10;;;;;;;7.65;1.30;;;2.60;99.90;;;;;;5052925;28;20037;-64
2023/01/17 05:15:36;;;;;;;5.93;1.05;;;2.60;99.90;;;;;;5035962;28;20052;-64
2023/01/17 05:18:07;;;;;;;6.28;1.60;;;2.50;99.90;;;;;;5051946;28;20114;-64
2023/01/17 05:20:34;;;;;;;6.97;1.25;;;2.50;99.90;;;;;;5052786;28;20110;-64
2023/01/17 05:23:00;;;;;;;4.95;1.10;;;2.50;99.90;;;;;;5051869;28;20379;-64
2023/01/17 05:25:29;;;;;;;6.25;1.55;;;2.50;99.90;;;;;;5053325;28;20045;-64
2023/01/17 05:27:55;;;;;;;5.13;0.88;;;2.50;99.90;;;;;;5052017;28;20029;-64
2023/01/17 05:30:22;;;;;;;2.53;0.73;;;2.40;99.90;;;;;;5053425;28;20154;-64
2023/01/17 05:32:49;;;;;;;4.88;1.15;;;2.40;99.90;;;;;;5052487;28;20044;-64
2023/01/17 05:35:18;;;;;;;4.40;1.35;;;2.40;99.90;;;;;;5052583;28;20068;-64
2023/01/17 05:37:48;;;;;;;2.40;0.80;;;2.40;99.90;;;;;;5051478;28;20041;-64
2023/01/17 05:40:18;;;;;;;4.30;1.15;;;2.40;99.90;;;;;;5053310;28;20402;-64
2023/01/17 05:42:55;;;;;;;11.10;1.70;;;2.40;99.90;;;;;;5050579;28;20045;-64
2023/01/17 05:45:22;;;;;;;8.77;2.00;;;2.40;99.90;;;;;;5051692;28;20053;-64
2023/01/17 05:47:50;;;;;;;9.52;1.10;;;2.30;99.90;;;;;;5052521;28;20045;-65
2023/01/17 05:50:22;;;;;;;6.25;1.77;;;2.30;99.90;;;;;;5034314;28;20049;-64
2023/01/17 05:52:53;;;;;;;5.50;1.05;;;2.40;99.90;;;;;;5051124;28;20041;-64
2023/01/17 05:55:20;;;;;;;4.25;0.98;;;2.40;99.90;;;;;;5050286;28;20409;-64
2023/01/17 05:57:45;;;;;;;9.13;1.27;;;2.40;99.90;;;;;;5052209;28;20069;-65
2023/01/17 06:00:12;;;;;;;5.38;0.85;;;2.30;99.90;;;;;;5051527;28;20032;-64
2023/01/17 06:02:38;;;;;;;8.18;1.15;;;2.30;99.90;;;;;;5050366;28;20110;-64
2023/01/17 06:05:04;;;;;;;6.00;2.13;;;2.30;99.90;;;;;;5051716;28;20084;-65
2023/01/17 06:07:30;;;;;;;29.65;16.73;;;2.30;99.90;;;;;;5051465;28;20481;-64
2023/01/17 06:09:56;;;;;;;10.25;4.10;;;2.30;99.90;;;;;;5051267;28;20043;-64
2023/01/17 06:12:21;;;;;;;20.85;11.00;;;2.40;99.90;;;;;;5052305;28;20539;-64
2023/01/17 06:14:47;;;;;;;17.25;10.68;;;2.40;99.90;;;;;;5051953;28;20033;-64
2023/01/17 06:17:12;;;;;;;45.05;31.02;;;2.50;99.90;;;;;;5051510;28;20086;-64
2023/01/17 06:19:38;;;;;;;18.65;12.93;;;2.50;99.90;;;;;;5050804;28;20036;-64
2023/01/17 06:22:04;;;;;;;23.48;16.83;;;2.50;99.90;;;;;;5052667;28;20094;-65
2023/01/17 06:24:30;;;;;;;16.33;9.68;;;2.50;99.90;;;;;;5050171;28;20052;-65
2023/01/17 06:26:56;;;;;;;7.30;3.63;;;2.40;99.90;;;;;;5051837;28;20437;-64
2023/01/17 06:29:22;;;;;;;7.75;3.85;;;2.40;99.90;;;;;;5052324;28;20076;-64
2023/01/17 06:31:47;;;;;;;7.28;3.85;;;2.40;99.90;;;;;;5050752;28;20087;-64
2023/01/17 06:34:13;;;;;;;7.82;4.43;;;2.30;99.90;;;;;;5051093;28;20045;-64
2023/01/17 06:36:39;;;;;;;6.53;2.92;;;2.30;99.90;;;;;;5050906;28;20044;-64
2023/01/17 06:39:04;;;;;;;7.28;2.15;;;2.20;99.90;;;;;;5050177;28;20037;-64
2023/01/17 06:41:30;;;;;;;2.15;0.75;;;2.20;99.90;;;;;;5050890;28;20147;-64
2023/01/17 06:43:56;;;;;;;4.90;0.88;;;2.10;99.90;;;;;;5050392;28;21057;-65
2023/01/17 06:46:24;;;;;;;5.13;1.52;;;2.00;99.90;;;;;;5051196;28;20048;-65
2023/01/17 06:48:50;;;;;;;4.32;1.33;;;2.00;99.90;;;;;;5050320;28;20055;-65
2023/01/17 06:51:16;;;;;;;3.97;1.35;;;1.90;99.90;;;;;;5050862;28;20037;-64
2023/01/17 06:53:41;;;;;;;5.00;1.75;;;1.90;99.90;;;;;;5049481;28;20048;-65
2023/01/17 06:56:08;;;;;;;6.72;2.45;;;1.80;99.90;;;;;;5050737;28;20425;-65
2023/01/17 06:58:35;;;;;;;4.57;1.40;;;1.80;99.90;;;;;;5050300;28;20075;-65
2023/01/17 07:01:07;;;;;;;6.00;3.25;;;1.70;99.90;;;;;;5051511;28;20041;-64
2023/01/17 07:03:33;;;;;;;6.15;1.67;;;1.60;99.90;;;;;;5051086;28;20052;-64
2023/01/17 07:06:11;;;;;;;6.13;1.05;;;1.50;99.90;;;;;;5051309;28;20041;-64
2023/01/17 07:08:37;;;;;;;5.00;1.40;;;1.50;99.90;;;;;;5054335;28;20049;-64
2023/01/17 07:11:07;;;;;;;6.38;1.23;;;1.50;99.90;;;;;;5055776;28;20041;-68
2023/01/17 07:13:42;;;;;;;7.18;1.38;;;1.50;99.90;;;;;;5053891;28;20037;-65
2023/01/17 07:16:08;;;;;;;4.10;1.15;;;1.40;99.90;;;;;;5035966;28;20041;-65
2023/01/17 07:18:34;;;;;;;4.40;1.00;;;1.40;99.90;;;;;;5056099;28;20040;-65
2023/01/17 07:21:00;;;;;;;4.38;1.00;;;1.30;99.90;;;;;;5054267;28;20040;-65
2023/01/17 07:23:25;;;;;;;7.88;1.73;;;1.30;99.90;;;;;;5054520;28;20044;-64
2023/01/17 07:25:52;;;;;;;6.10;2.00;;;1.30;99.90;;;;;;5053918;28;20056;-65
2023/01/17 07:28:17;;;;;;;4.78;1.50;;;1.30;99.90;;;;;;5053690;28;20041;-65
2023/01/17 07:30:43;;;;;;;4.43;1.10;;;1.20;99.90;;;;;;5054583;28;20339;-65
2023/01/17 07:33:09;;;;;;;3.90;1.05;;;1.20;99.90;;;;;;5054578;28;20036;-65
2023/01/17 07:35:35;;;;;;;7.45;1.40;;;1.20;99.90;;;;;;5050146;28;20566;-65
2023/01/17 07:38:01;;;;;;;5.18;1.27;;;1.20;99.90;;;;;;5052181;28;20053;-65
2023/01/17 07:40:27;;;;;;;3.85;1.10;;;1.10;99.90;;;;;;5053160;28;20094;-65
2023/01/17 07:43:11;;;;;;;8.63;2.00;;;1.10;99.90;;;;;;5050837;28;20401;-64
2023/01/17 07:45:41;;;;;;;2.97;1.00;;;1.10;99.90;;;;;;5051821;28;20049;-65
2023/01/17 07:48:10;;;;;;;3.42;1.13;;;1.10;99.90;;;;;;5052487;28;20029;-65
2023/01/17 07:50:36;;;;;;;5.25;1.00;;;1.10;99.90;;;;;;5052802;28;20044;-65
2023/01/17 07:53:03;;;;;;;5.38;1.40;;;1.10;99.90;;;;;;5049751;28;20045;-65
2023/01/17 07:55:28;;;;;;;4.18;1.70;;;1.10;99.90;;;;;;5050857;28;20087;-64
2023/01/17 07:57:54;;;;;;;5.95;1.50;;;1.10;99.90;;;;;;5050255;28;20513;-64
2023/01/17 08:00:22;;;;;;;6.35;1.58;;;1.20;99.90;;;;;;5050666;28;20171;-65
2023/01/17 08:02:48;;;;;;;5.97;1.45;;;1.20;99.90;;;;;;5049992;28;20049;-65
2023/01/17 08:05:14;;;;;;;3.75;1.23;;;1.30;99.90;;;;;;5051577;28;20662;-65
2023/01/17 08:07:40;;;;;;;4.13;1.02;;;1.40;99.90;;;;;;5050596;28;20045;-65
2023/01/17 08:10:11;;;;;;;4.72;0.90;;;1.40;99.90;;;;;;5050528;28;20045;-65
2023/01/17 08:12:37;;;;;;;8.68;1.17;;;1.50;99.90;;;;;;5051146;28;20049;-65
2023/01/17 08:15:03;;;;;;;7.97;2.15;;;1.60;99.90;;;;;;5051369;28;20107;-64
2023/01/17 08:17:29;;;;;;;4.43;1.40;;;1.70;99.90;;;;;;5049204;28;20040;-64
2023/01/17 08:19:55;;;;;;;6.55;1.10;;;1.70;99.90;;;;;;5050517;28;20048;-64
2023/01/17 08:22:21;;;;;;;4.30;1.58;;;1.80;99.90;;;;;;5050543;28;20383;-64
2023/01/17 08:24:47;;;;;;;4.72;1.02;;;1.90;99.90;;;;;;5049310;28;20063;-65
2023/01/17 08:27:13;;;;;;;4.07;0.80;;;1.90;99.90;;;;;;5038858;28;20793;-65
2023/01/17 08:29:41;;;;;;;4.18;1.08;;;1.90;99.90;;;;;;5031201;28;20045;-65
2023/01/17 08:32:07;;;;;;;4.80;1.58;;;2.00;99.90;;;;;;5047029;28;20041;-64
2023/01/17 08:34:32;;;;;;;5.05;1.10;;;2.00;99.90;;;;;;5049709;28;20033;-64
2023/01/17 08:36:58;;;;;;;6.90;1.20;;;2.00;99.90;;;;;;5051048;28;20124;-65
2023/01/17 08:39:26;;;;;;;4.50;1.25;;;2.00;99.90;;;;;;5049778;28;20067;-64
2023/01/17 08:41:52;;;;;;;7.00;1.60;;;2.00;99.90;;;;;;5032668;28;20450;-64
2023/01/17 08:44:18;;;;;;;9.82;2.30;;;2.00;99.90;;;;;;5049302;28;20148;-64
2023/01/17 08:46:44;;;;;;;10.07;2.22;;;2.10;99.90;;;;;;5032220;28;20044;-64
2023/01/17 08:49:11;;;;;;;7.50;1.77;;;2.10;99.90;;;;;;5050230;28;20052;-64
2023/01/17 08:51:37;;;;;;;5.15;1.52;;;2.20;99.90;;;;;;5048339;28;20041;-64
2023/01/17 08:54:03;;;;;;;5.55;2.17;;;2.20;99.90;;;;;;5031406;28;20048;-64
2023/01/17 08:56:28;;;;;;;4.43;1.40;;;2.30;99.90;;;;;;5064744;28;20059;-64
2023/01/17 08:58:54;;;;;;;3.13;1.10;;;2.40;99.90;;;;;;5049731;28;20040;-65
2023/01/17 09:01:20;;;;;;;5.80;1.17;;;2.50;99.90;;;;;;5049927;28;20045;-65
2023/01/17 09:03:48;;;;;;;5.80;1.42;;;2.70;99.90;;;;;;5050507;28;20040;-64
2023/01/17 09:06:14;;;;;;;3.03;0.65;;;2.90;99.90;;;;;;5049549;28;20045;-64
2023/01/17 09:08:42;;;;;;;4.95;1.52;;;3.00;99.90;;;;;;5030510;28;20052;-64
2023/01/17 09:11:11;;;;;;;9.18;4.93;;;3.10;99.90;;;;;;5045470;28;20094;-65
2023/01/17 09:13:37;;;;;;;12.20;9.10;;;3.20;99.90;;;;;;5049846;28;20126;-65
2023/01/17 09:16:04;;;;;;;17.00;13.18;;;3.20;99.90;;;;;;5049209;28;20048;-65
2023/01/17 09:18:31;;;;;;;5.30;2.40;;;3.20;99.90;;;;;;5049799;28;20406;-63
2023/01/17 09:21:00;;;;;;;20.73;14.77;;;3.10;99.90;;;;;;5047957;28;20045;-64
2023/01/17 09:23:28;;;;;;;13.52;8.82;;;2.90;99.90;;;;;;5047783;28;20037;-64
2023/01/17 09:25:55;;;;;;;6.07;3.75;;;2.80;99.90;;;;;;5049309;28;20104;-64
2023/01/17 09:28:21;;;;;;;4.97;1.42;;;2.70;99.90;;;;;;5048848;28;20055;-64
2023/01/17 09:30:47;;;;;;;1.08;0.52;;;2.60;99.90;;;;;;5049268;28;20043;-64
2023/01/17 09:33:13;;;;;;;2.40;0.60;;;2.50;99.90;;;;;;5049047;28;20067;-64
2023/01/17 09:35:40;;;;;;;7.70;1.67;;;2.50;99.90;;;;;;5048332;28;20052;-64
2023/01/17 09:38:06;;;;;;;4.43;1.88;;;2.50;99.90;;;;;;5048997;28;20103;-64
2023/01/17 09:40:32;;;;;;;3.72;1.05;;;2.50;99.90;;;;;;5049641;28;20435;-64
2023/01/17 09:43:02;;;;;;;2.80;0.90;;;2.50;99.90;;;;;;5048486;28;20041;-64
2023/01/17 09:45:32;;;;;;;6.90;0.93;;;2.60;99.90;;;;;;5040370;28;20041;-64
2023/01/17 09:48:01;;;;;;;5.07;1.40;;;2.60;99.90;;;;;;5048583;28;20041;-64
2023/01/17 09:50:42;;;;;;;5.68;1.30;;;2.70;99.90;;;;;;5048171;28;20041;-65
2023/01/17 09:53:19;;;;;;;3.20;0.80;;;2.80;99.90;;;;;;5047332;28;20099;-65
2023/01/17 09:55:57;;;;;;;3.55;0.60;;;2.90;99.90;;;;;;5047322;28;20044;-64
2023/01/17 09:58:54;;;;;;;3.75;1.17;;;3.00;99.90;;;;;;5031596;28;20128;-64
2023/01/17 10:01:40;;;;;;;5.13;1.08;;;3.00;99.90;;;;;;5034852;28;20757;-65
2023/01/17 10:04:39;;;;;;;1.80;0.70;;;3.10;99.90;;;;;;5030674;28;20052;-65
2023/01/17 10:07:38;;;;;;;5.90;0.90;;;3.20;99.90;;;;;;5032073;28;20041;-65
2023/01/17 10:10:12;;;;;;;4.88;0.82;;;3.20;99.90;;;;;;5064211;28;20049;-64
2023/01/17 10:13:15;;;;;;;6.97;1.13;;;3.30;99.90;;;;;;5051796;28;20041;-64
2023/01/17 10:16:09;;;;;;;3.58;1.35;;;3.40;99.90;;;;;;5031319;28;20038;-64
2023/01/17 10:19:02;;;;;;;2.80;0.82;;;3.50;99.90;;;;;;5043626;28;20036;-65
2023/01/17 10:21:48;;;;;;;4.03;0.80;;;3.60;99.90;;;;;;5052633;28;20051;-64
2023/01/17 10:24:20;;;;;;;4.97;0.95;;;3.70;99.90;;;;;;5050129;28;20390;-64
2023/01/17 10:26:50;;;;;;;5.03;0.77;;;3.70;99.90;;;;;;5049426;28;20080;-64
2023/01/17 10:29:18;;;;;;;3.35;0.57;;;3.70;99.90;;;;;;5015340;28;20391;-64
2023/01/17 10:31:54;;;;;;;4.53;0.95;;;3.70;99.90;;;;;;5031306;28;20400;-64
2023/01/17 10:34:39;;;;;;;3.22;0.80;;;3.80;99.90;;;;;;5043440;28;20052;-64
2023/01/17 10:37:31;;;;;;;5.73;1.40;;;3.80;99.90;;;;;;5051547;28;20045;-64
2023/01/17 10:40:12;;;;;;;3.25;1.50;;;3.80;99.90;;;;;;5050735;28;20294;-64
2023/01/17 10:42:59;;;;;;;2.65;0.68;;;3.80;99.90;;;;;;5050637;28;20131;-64
2023/01/17 10:45:29;;;;;;;4.25;0.90;;;3.90;99.90;;;;;;5051398;28;20045;-63
2023/01/17 10:48:29;;;;;;;2.70;0.50;;;3.90;99.90;;;;;;5050223;28;20067;-64
2023/01/17 10:51:21;;;;;;;4.65;0.82;;;4.00;99.90;;;;;;5032761;28;20405;-64
2023/01/17 10:53:58;;;;;;;8.13;1.83;;;4.00;99.90;;;;;;5049466;28;20135;-64
2023/01/17 10:56:28;;;;;;;4.60;0.90;;;4.10;99.90;;;;;;5049777;28;20039;-64
2023/01/17 10:59:14;;;;;;;7.55;0.85;;;4.10;99.90;;;;;;5049000;28;20052;-64
2023/01/17 11:01:40;;;;;;;2.83;0.93;;;4.20;99.90;;;;;;5040274;28;20052;-63
2023/01/17 11:04:35;;;;;;;7.63;1.70;;;4.30;99.90;;;;;;5050502;28;20402;-64
2023/01/17 11:07:12;;;;;;;4.93;1.13;;;4.30;99.90;;;;;;5050690;28;20056;-64
2023/01/17 11:09:43;;;;;;;7.78;1.65;;;4.30;99.90;;;;;;5051802;28;20091;-64
2023/01/17 11:12:30;;;;;;;5.47;1.50;;;4.40;99.90;;;;;;5049719;28;20405;-63
2023/01/17 11:15:04;;;;;;;4.63;1.40;;;4.40;99.90;;;;;;5049953;28;20094;-64
2023/01/17 11:17:31;;;;;;;5.55;1.50;;;4.40;99.90;;;;;;5049930;28;20041;-65
2023/01/17 11:20:18;;;;;;;7.50;1.35;;;4.40;99.90;;;;;;5047764;28;20033;-64
2023/01/17 11:22:59;;;;;;;5.10;1.40;;;4.40;99.90;;;;;;5030358;28;20049;-64
2023/01/17 11:25:26;;;;;;;3.60;1.17;;;4.50;99.90;;;;;;5030727;28;20402;-64
2023/01/17 11:28:07;;;;;;;9.43;1.70;;;4.50;99.90;;;;;;5030534;28;20065;-64
2023/01/17 11:30:33;;;;;;;4.20;1.25;;;4.50;99.90;;;;;;5034034;28;20045;-64
2023/01/17 11:33:03;;;;;;;12.13;1.48;;;4.60;99.90;;;;;;5050362;28;20049;-64
2023/01/17 11:35:44;;;;;;;4.10;1.10;;;4.60;99.90;;;;;;5050322;28;20040;-64
2023/01/17 11:38:22;;;;;;;5.45;1.42;;;4.70;99.90;;;;;;5032155;28;20052;-64
2023/01/17 11:40:49;;;;;;;5.72;1.40;;;4.70;99.90;;;;;;5048676;28;20425;-64
2023/01/17 11:43:20;;;;;;;5.70;1.10;;;4.70;99.90;;;;;;5050694;28;20123;-64
2023/01/17 11:46:05;;;;;;;3.25;1.10;;;4.70;99.90;;;;;;5033379;28;20371;-64
2023/01/17 11:48:37;;;;;;;5.32;1.00;;;4.80;99.90;;;;;;5049743;28;20040;-64
2023/01/17 11:51:12;;;;;;;4.20;1.20;;;4.80;99.90;;;;;;5050184;28;20049;-65
2023/01/17 11:53:43;;;;;;;5.45;1.05;;;4.80;99.90;;;;;;5055017;28;20130;-65
2023/01/17 11:56:16;;;;;;;3.47;1.67;;;4.90;99.90;;;;;;5036844;28;20040;-64
2023/01/17 11:58:44;;;;;;;2.10;0.85;;;4.90;99.90;;;;;;5053523;28;20048;-64
2023/01/17 12:01:54;;;;;;;6.20;1.20;;;5.00;99.90;;;;;;5052709;28;20127;-64
2023/01/17 12:04:26;;;;;;;3.10;0.80;;;5.10;99.90;;;;;;5048670;28;20055;-64
2023/01/17 12:06:59;;;;;;;4.70;1.58;;;5.10;99.90;;;;;;5052811;28;20190;-64
2023/01/17 12:09:33;;;;;;;3.05;0.90;;;5.20;99.90;;;;;;5054378;28;20045;-64
2023/01/17 12:15:21;;;;;;;7.28;1.13;;;5.30;99.90;;;;;;5053073;28;20049;-64
2023/01/17 12:18:04;;;;;;;1.77;0.63;;;5.20;99.90;;;;;;5053027;28;20474;-64
2023/01/17 12:20:33;;;;;;;4.35;2.05;;;5.20;99.90;;;;;;5053649;28;20087;-64
2023/01/17 12:23:12;;;;;;;4.82;1.30;;;5.20;99.90;;;;;;5051697;28;20052;-64
2023/01/17 12:25:41;;;;;;;5.40;0.95;;;5.20;99.90;;;;;;5053107;28;20142;-64
2023/01/17 12:28:10;;;;;;;3.35;0.98;;;5.10;99.90;;;;;;5054786;28;20139;-64
2023/01/17 12:30:41;;;;;;;5.90;1.10;;;5.10;99.90;;;;;;5052637;28;20040;-65
2023/01/17 12:33:32;;;;;;;4.43;0.85;;;5.20;99.90;;;;;;5054302;28;20041;-64
2023/01/17 12:36:03;;;;;;;2.88;0.80;;;5.10;99.90;;;;;;5052744;28;20041;-64
2023/01/17 12:38:38;;;;;;;4.63;0.80;;;5.10;99.90;;;;;;5052453;28;20048;-63
2023/01/17 12:41:23;;;;;;;2.88;0.90;;;5.10;99.90;;;;;;5052491;28;20152;-64
2023/01/17 12:43:55;;;;;;;5.65;1.25;;;5.20;99.90;;;;;;5033248;28;20041;-64
2023/01/17 12:46:29;;;;;;;4.20;1.23;;;5.30;99.90;;;;;;5043635;28;20041;-64
2023/01/17 12:49:21;;;;;;;6.17;0.97;;;5.40;99.90;;;;;;5052543;28;20033;-64
2023/01/17 12:52:29;;;;;;;4.88;2.33;;;5.50;99.90;;;;;;5046069;28;20307;-64
2023/01/17 12:55:00;;;;;;;2.58;0.85;;;5.40;99.90;;;;;;5023713;28;20137;-64
2023/01/17 12:57:39;;;;;;;4.38;1.30;;;5.40;99.90;;;;;;5026010;28;20037;-63
2023/01/17 13:00:36;;;;;;;6.50;1.15;;;5.30;99.90;;;;;;5024621;28;20065;-64
2023/01/17 13:03:23;;;;;;;5.40;1.65;;;5.20;99.90;;;;;;5031379;28;20060;-64
2023/01/17 13:05:51;;;;;;;5.07;1.30;;;5.20;99.90;;;;;;5033217;28;20060;-64
2023/01/17 13:08:25;;;;;;;4.38;1.20;;;5.30;99.90;;;;;;5041911;28;20112;-64
2023/01/17 13:11:09;;;;;;;5.93;1.20;;;5.30;99.90;;;;;;5052495;28;20390;-64
2023/01/17 13:13:35;;;;;;;6.88;1.10;;;5.40;99.90;;;;;;5051843;28;20056;-65
2023/01/17 13:16:11;;;;;;;8.77;3.05;;;5.30;99.90;;;;;;5053470;28;20037;-64
2023/01/17 13:18:45;;;;;;;4.05;1.70;;;5.30;99.90;;;;;;5051644;28;20033;-64
2023/01/17 13:21:28;;;;;;;4.85;1.10;;;5.30;99.90;;;;;;5053698;28;20041;-65
2023/01/17 13:24:06;;;;;;;5.07;1.38;;;5.30;99.90;;;;;;5051452;28;20037;-65
2023/01/17 13:26:49;;;;;;;4.90;0.70;;;5.20;99.90;;;;;;5052946;28;20069;-65
2023/01/17 13:29:27;;;;;;;4.15;0.93;;;5.20;99.90;;;;;;5051956;28;20056;-65
2023/01/17 13:32:30;;;;;;;2.10;0.80;;;5.20;99.90;;;;;;5050954;28;20037;-65
2023/01/17 13:35:18;;;;;;;4.07;1.20;;;5.30;99.90;;;;;;5052904;28;20406;-65
2023/01/17 13:37:46;;;;;;;2.92;1.05;;;5.30;99.90;;;;;;5051184;28;20090;-64
2023/01/17 13:40:24;;;;;;;4.93;0.90;;;5.30;99.90;;;;;;5031341;28;20486;-64
2023/01/17 13:42:58;;;;;;;2.70;1.05;;;5.30;99.90;;;;;;5047507;28;20081;-64
2023/01/17 13:45:35;;;;;;;3.95;0.90;;;5.30;99.90;;;;;;5053075;28;20045;-65
2023/01/17 13:48:18;;;;;;;3.83;0.90;;;5.30;99.90;;;;;;5050594;28;20085;-64
2023/01/17 13:50:44;;;;;;;4.00;1.00;;;5.40;99.90;;;;;;5052411;28;20041;-64
2023/01/17 13:53:34;;;;;;;4.50;1.10;;;5.30;99.90;;;;;;5051598;28;20052;-64
2023/01/17 13:56:18;;;;;;;3.83;1.20;;;5.30;99.90;;;;;;5050643;28;20037;-64
2023/01/17 13:58:50;;;;;;;3.70;1.15;;;5.20;99.90;;;;;;5050961;28;20120;-64
2023/01/17 14:01:22;;;;;;;6.03;2.75;;;5.20;99.90;;;;;;5052232;28;20513;-67
2023/01/17 14:03:50;;;;;;;2.95;1.00;;;5.00;99.90;;;;;;5051016;28;20402;-65
2023/01/17 14:06:35;;;;;;;1.88;0.63;;;5.00;99.90;;;;;;5052059;28;20037;-65
2023/01/17 14:09:06;;;;;;;2.40;0.70;;;4.90;99.90;;;;;;5050693;28;20186;-64
2023/01/17 14:11:35;;;;;;;7.13;0.85;;;4.90;99.90;;;;;;5052599;28;20044;-64
2023/01/17 14:14:34;;;;;;;1.88;0.60;;;4.80;99.90;;;;;;5050211;28;20033;-66
2023/01/17 14:17:21;;;;;;;2.40;0.70;;;4.70;99.90;;;;;;5050022;28;20525;-66
2023/01/17 14:19:54;;;;;;;3.45;0.90;;;4.70;99.90;;;;;;5031166;28;20087;-67
2023/01/17 14:22:20;;;;;;;2.55;0.75;;;4.60;99.90;;;;;;5048675;28;20052;-68
2023/01/17 14:25:13;;;;;;;4.30;0.85;;;4.60;99.90;;;;;;5045014;28;20056;-65
2023/01/17 14:27:54;;;;;;;3.85;1.00;;;4.60;99.90;;;;;;5050442;28;20072;-65
2023/01/17 14:30:24;;;;;;;2.70;0.85;;;4.60;99.90;;;;;;5049764;28;20123;-65
2023/01/17 14:33:07;;;;;;;4.30;1.15;;;4.60;99.90;;;;;;5050012;28;20060;-65
2023/01/17 14:35:40;;;;;;;3.47;1.00;;;4.60;99.90;;;;;;5032404;28;20113;-66
2023/01/17 14:38:40;;;;;;;3.60;0.90;;;4.60;99.90;;;;;;5027055;28;20116;-66
2023/01/17 14:41:10;;;;;;;3.63;1.15;;;4.60;99.90;;;;;;5039507;28;20095;-66
2023/01/17 14:43:40;;;;;;;4.68;0.98;;;4.50;99.90;;;;;;5048907;28;20045;-65